Time;durP1;ratioP1;P1;durP2;ratioP2;P2;SDS_P1;SDS_P2;PMS_P1;PMS_P2;Temp;Humidity;BMP_temperature;BMP_pressure;BME280_temperature;BME280_humidity;BME280_pressure;Samples;Min_cycle;Max_cycle;Signal;HPM_P1;HPM_P2
2021/05/28 00:00:58;;;;;;;14.25;12.10;;;;;;;9.89;76.97;101234.71;1656699;85;21152;-86
2021/05/28 00:03:26;;;;;;;15.78;11.80;;;;;;;9.92;76.92;101239.17;1656449;85;21731;-87
2021/05/28 00:05:53;;;;;;;14.25;11.18;;;;;;;9.97;76.96;101236.30;1659745;85;21135;-86
2021/05/28 00:08:20;;;;;;;12.40;10.00;;;;;;;10.01;76.95;101236.87;1659732;85;21649;-87
2021/05/28 00:10:47;;;;;;;10.65;9.55;;;;;;;10.08;77.03;101238.00;1663516;84;21128;-87
2021/05/28 00:14:12;;;;;;;13.38;8.65;;;;;;;10.12;76.98;101232.88;1658279;85;21220;-87
2021/05/28 00:16:39;;;;;;;10.75;8.95;;;;;;;10.18;76.95;101232.63;1678174;84;22624;-87
2021/05/28 00:19:06;;;;;;;13.22;8.55;;;;;;;10.23;76.81;101231.94;1720878;82;21134;-87
2021/05/28 00:21:33;;;;;;;10.65;8.63;;;;;;;10.24;76.75;101224.93;1725887;82;21432;-87
2021/05/28 00:24:00;;;;;;;13.80;9.08;;;;;;;10.28;76.72;101228.12;1733222;81;21126;-87
2021/05/28 00:26:27;;;;;;;9.90;8.40;;;;;;;10.33;76.77;101225.27;1688428;83;21036;-87
2021/05/28 00:28:54;;;;;;;8.40;7.53;;;;;;;10.38;76.77;101228.05;1732510;80;21679;-87
2021/05/28 00:31:21;;;;;;;10.68;8.03;;;;;;;10.44;76.69;101226.53;1684276;82;21111;-87
2021/05/28 00:33:48;;;;;;;11.33;7.80;;;;;;;10.48;76.63;101228.41;1659427;85;21096;-88
2021/05/28 00:36:15;;;;;;;8.15;7.15;;;;;;;10.55;76.63;101231.23;1719683;82;21074;-87
2021/05/28 00:38:42;;;;;;;9.00;6.58;;;;;;;10.60;76.50;101221.76;1722798;82;21731;-87
2021/05/28 00:41:09;;;;;;;7.67;6.87;;;;;;;10.64;76.45;101218.38;1685212;82;21727;-86
2021/05/28 00:43:36;;;;;;;7.92;6.60;;;;;;;10.66;76.34;101217.59;1731905;81;21636;-87
2021/05/28 00:46:04;;;;;;;13.00;6.95;;;;;;;10.71;76.28;101220.36;1733493;80;21090;-87
2021/05/28 00:48:32;;;;;;;7.62;6.60;;;;;;;10.75;76.24;101218.30;1717598;82;21099;-87
2021/05/28 00:50:58;;;;;;;11.45;8.43;;;;;;;10.78;76.20;101221.04;1732618;82;21359;-87
2021/05/28 00:53:25;;;;;;;10.40;8.55;;;;;;;10.79;76.03;101219.29;1688472;83;21657;-88
2021/05/28 00:55:52;;;;;;;11.18;8.68;;;;;;;10.78;75.96;101218.84;1617823;84;21170;-87
2021/05/28 00:58:19;;;;;;;12.60;9.58;;;;;;;10.79;75.96;101225.88;1632179;85;21109;-88
2021/05/28 01:00:47;;;;;;;14.38;10.08;;;;;;;10.78;75.88;101226.30;1685239;84;21091;-87
2021/05/28 01:03:14;;;;;;;16.48;9.45;;;;;;;10.77;75.93;101228.45;1668539;84;21079;-87
2021/05/28 01:05:41;;;;;;;15.28;8.60;;;;;;;10.77;75.92;101227.13;1659051;84;21754;-87
2021/05/28 01:08:07;;;;;;;10.70;8.40;;;;;;;10.76;75.92;101219.21;1677441;84;21587;-87
2021/05/28 01:10:35;;;;;;;9.83;8.13;;;;;;;10.77;75.96;101228.45;1724399;81;21046;-87
2021/05/28 01:13:06;;;;;;;12.40;7.60;;;;;;;10.75;75.84;101228.83;1722695;82;21055;-86
2021/05/28 01:15:33;;;;;;;11.55;7.65;;;;;;;10.72;75.80;101231.38;1733830;82;21597;-87
2021/05/28 01:18:00;;;;;;;8.30;6.90;;;;;;;10.68;75.86;101229.50;1733992;81;21832;-87
2021/05/28 01:20:26;;;;;;;8.80;6.65;;;;;;;10.65;75.85;101234.23;1728167;82;21297;-88
2021/05/28 01:22:53;;;;;;;8.88;6.55;;;;;;;10.62;75.93;101227.97;1684281;82;21185;-90
2021/05/28 01:25:21;;;;;;;9.00;6.22;;;;;;;10.62;75.97;101237.18;1668099;85;21186;-88
2021/05/28 01:27:48;;;;;;;8.28;6.87;;;;;;;10.59;75.97;101235.78;1677223;84;21136;-88
2021/05/28 01:30:15;;;;;;;10.08;7.58;;;;;;;10.57;76.04;101233.09;1667452;84;21841;-87
2021/05/28 01:32:42;;;;;;;9.93;8.20;;;;;;;10.55;76.03;101234.78;1720448;82;21182;-87
2021/05/28 01:35:14;;;;;;;8.15;7.25;;;;;;;10.53;76.14;101237.80;1681856;82;21064;-88
2021/05/28 01:37:42;;;;;;;11.83;7.55;;;;;;;10.54;76.22;101234.30;1718225;82;21604;-89
2021/05/28 01:40:09;;;;;;;9.25;7.40;;;;;;;10.52;76.20;101232.04;1717090;82;21078;-87
2021/05/28 01:42:36;;;;;;;13.80;7.22;;;;;;;10.52;76.26;101236.42;1684670;83;21744;-87
2021/05/28 01:45:05;;;;;;;10.15;7.40;;;;;;;10.51;76.29;101236.85;1738698;82;21074;-88
2021/05/28 01:47:33;;;;;;;9.95;7.92;;;;;;;10.47;76.27;101232.30;1730687;82;21146;-87
2021/05/28 01:49:59;;;;;;;9.70;7.00;;;;;;;10.43;76.20;101232.63;1717782;82;21181;-87
2021/05/28 01:52:26;;;;;;;10.53;7.65;;;;;;;10.36;76.17;101229.73;1722758;82;21070;-87
2021/05/28 01:54:53;;;;;;;9.50;7.15;;;;;;;10.30;76.29;101226.08;1736919;81;21814;-86
2021/05/28 01:57:20;;;;;;;8.50;7.08;;;;;;;10.25;76.35;101223.67;1725353;81;21591;-87
2021/05/28 01:59:47;;;;;;;9.58;7.47;;;;;;;10.21;76.36;101224.42;1723571;82;21082;-88
2021/05/28 02:02:15;;;;;;;11.70;7.47;;;;;;;10.17;76.41;101222.50;1657239;84;21132;-87
2021/05/28 02:04:42;;;;;;;9.93;6.80;;;;;;;10.10;76.44;101223.16;1727159;80;21070;-87
2021/05/28 02:07:10;;;;;;;7.75;6.55;;;;;;;10.06;76.54;101225.18;1727605;82;21770;-87
2021/05/28 02:09:37;;;;;;;7.65;6.80;;;;;;;10.03;76.60;101229.04;1696929;83;21097;-89
2021/05/28 02:12:04;;;;;;;9.03;6.87;;;;;;;10.00;76.67;101226.29;1732858;81;21086;-87
2021/05/28 02:14:31;;;;;;;7.53;6.30;;;;;;;9.97;76.77;101229.72;1680744;83;21181;-86
2021/05/28 02:16:58;;;;;;;10.85;6.70;;;;;;;9.93;76.79;101233.09;1671538;84;21675;-86
2021/05/28 02:19:25;;;;;;;8.08;6.42;;;;;;;9.88;76.82;101235.97;1661140;84;22305;-87
2021/05/28 02:21:53;;;;;;;6.60;5.85;;;;;;;9.84;76.83;101239.33;1732258;82;21549;-87
2021/05/28 02:24:19;;;;;;;9.70;6.53;;;;;;;9.81;76.95;101232.21;1722572;82;21070;-87
2021/05/28 02:26:47;;;;;;;10.50;6.08;;;;;;;9.81;76.96;101244.05;1690220;83;21131;-88
2021/05/28 02:29:14;;;;;;;11.03;6.05;;;;;;;9.78;76.98;101237.37;1720620;82;21038;-88
2021/05/28 02:31:41;;;;;;;6.40;5.15;;;;;;;9.77;77.01;101231.62;1736515;82;21759;-89
2021/05/28 02:34:09;;;;;;;8.65;5.67;;;;;;;9.77;77.03;101240.83;1739381;81;21601;-89
2021/05/28 02:36:36;;;;;;;6.53;5.22;;;;;;;9.79;77.10;101242.20;1724951;82;21721;-87
2021/05/28 02:39:05;;;;;;;7.83;5.42;;;;;;;9.80;77.17;101242.27;1734907;80;21074;-87
2021/05/28 02:41:32;;;;;;;9.03;5.80;;;;;;;9.84;77.16;101245.91;1720654;82;21079;-87
2021/05/28 02:43:59;;;;;;;7.10;5.85;;;;;;;9.88;77.21;101246.48;1683922;83;21817;-87
2021/05/28 02:46:26;;;;;;;6.35;5.47;;;;;;;9.95;77.27;101243.23;1725622;81;21130;-87
2021/05/28 02:48:53;;;;;;;7.65;5.60;;;;;;;10.00;77.14;101246.02;1731156;82;21091;-87
2021/05/28 02:51:20;;;;;;;9.30;6.50;;;;;;;9.98;76.97;101252.53;1722762;82;21580;-86
2021/05/28 02:53:47;;;;;;;7.90;6.00;;;;;;;9.99;76.97;101253.02;1682719;83;21103;-87
2021/05/28 02:56:14;;;;;;;7.70;6.25;;;;;;;10.00;77.05;101253.48;1731561;82;21735;-88
2021/05/28 03:02:18;;;;;;;8.00;6.40;;;;;;;10.06;76.97;101257.66;1674751;83;21203;-87
2021/05/28 03:04:45;;;;;;;7.12;5.72;;;;;;;10.08;76.92;101266.50;1666776;85;21521;-87
2021/05/28 03:07:12;;;;;;;7.78;5.25;;;;;;;10.09;76.86;101264.33;1681151;83;21104;-87
2021/05/28 03:09:39;;;;;;;6.37;5.17;;;;;;;10.13;76.90;101266.64;1686191;82;22475;-86
2021/05/28 03:12:10;;;;;;;6.83;5.58;;;;;;;10.20;77.03;101263.82;1676669;83;21099;-87
2021/05/28 03:14:37;;;;;;;8.65;6.22;;;;;;;10.33;77.14;101262.11;1699394;82;21131;-87
2021/05/28 03:17:04;;;;;;;10.60;7.40;;;;;;;10.51;77.23;101261.86;1712244;81;21143;-87
2021/05/28 03:19:41;;;;;;;11.22;7.15;;;;;;;10.73;77.28;101262.55;1679489;83;21143;-87
2021/05/28 03:24:38;;;;;;;5.00;4.30;;;;;;;11.18;77.18;101260.89;1676103;83;21101;-87
2021/05/28 03:27:05;;;;;;;5.10;4.58;;;;;;;11.58;77.17;101263.39;1709082;82;21133;-88
2021/05/28 03:29:33;;;;;;;4.45;3.95;;;;;;;11.98;76.82;101264.58;1707273;81;21150;-87
2021/05/28 03:32:00;;;;;;;6.17;4.03;;;;;;;12.43;76.50;101261.36;1720093;81;21051;-87
2021/05/28 03:34:27;;;;;;;4.12;3.35;;;;;;;12.98;76.10;101259.17;1687993;83;21746;-88
2021/05/28 03:36:54;;;;;;;3.47;3.02;;;;;;;13.90;76.87;101251.91;1712153;81;21043;-88
2021/05/28 03:39:21;;;;;;;5.10;2.95;;;;;;;15.32;76.90;101247.65;1666317;84;21080;-88
2021/05/28 03:41:48;;;;;;;4.35;2.85;;;;;;;17.19;76.27;101246.38;1713411;82;21205;-87
2021/05/28 03:44:15;;;;;;;3.52;3.15;;;;;;;18.56;72.94;101252.14;1682065;84;21112;-89
2021/05/28 03:46:47;;;;;;;5.75;2.92;;;;;;;18.75;68.73;101248.60;1716422;81;21761;-88
2021/05/28 03:49:15;;;;;;;4.00;2.77;;;;;;;17.92;66.62;101248.50;1693703;81;21039;-89
2021/05/28 03:51:42;;;;;;;5.10;2.60;;;;;;;17.24;66.40;101249.97;1753613;80;21068;-88
2021/05/28 03:54:09;;;;;;;4.05;2.87;;;;;;;16.61;66.18;101257.05;1744846;80;21079;-88
2021/05/28 03:56:36;;;;;;;5.05;2.75;;;;;;;16.03;66.17;101259.12;1750903;80;21086;-90
2021/05/28 03:59:03;;;;;;;3.30;3.00;;;;;;;15.61;66.44;101260.39;1767492;79;21896;-88
2021/05/28 04:01:30;;;;;;;4.58;3.00;;;;;;;15.18;66.57;101259.38;1750674;80;21646;-88
2021/05/28 04:03:59;;;;;;;3.77;2.80;;;;;;;14.92;67.04;101265.20;1732216;81;21508;-88
2021/05/28 04:06:25;;;;;;;3.12;2.87;;;;;;;14.72;67.16;101268.85;1762141;80;21591;-90
2021/05/28 04:08:52;;;;;;;4.85;3.08;;;;;;;14.48;67.14;101265.77;1758127;80;21128;-88
2021/05/28 04:11:19;;;;;;;5.42;2.90;;;;;;;14.26;67.41;101271.10;1752512;80;22499;-86
2021/05/28 04:13:46;;;;;;;5.40;2.90;;;;;;;14.16;67.72;101271.37;1750138;80;21213;-80
2021/05/28 04:16:13;;;;;;;4.85;3.47;;;;;;;14.01;67.80;101279.91;1758526;80;21172;-83
2021/05/28 04:18:40;;;;;;;5.83;2.95;;;;;;;13.85;67.96;101274.77;1758336;80;21807;-83
2021/05/28 04:21:06;;;;;;;4.58;2.72;;;;;;;13.74;68.13;101277.59;1762927;80;21074;-84
2021/05/28 04:23:33;;;;;;;3.12;2.80;;;;;;;13.68;68.32;101281.00;1749599;80;22294;-82
2021/05/28 04:28:45;;;;;;;6.15;2.80;;;;;;;13.54;68.49;101278.08;1708562;82;21144;-81
2021/05/28 04:31:12;;;;;;;4.40;3.52;;;;;;;13.49;68.71;101280.16;1703545;82;21697;-80
2021/05/28 04:33:39;;;;;;;5.03;3.30;;;;;;;13.51;68.87;101277.13;1732104;81;21135;-80
2021/05/28 04:36:06;;;;;;;7.65;3.65;;;;;;;13.52;68.97;101279.80;1698509;82;21781;-84
2021/05/28 04:38:32;;;;;;;4.72;2.25;;;;;;;13.55;68.99;101281.61;1709120;82;21116;-85
2021/05/28 04:41:00;;;;;;;4.08;3.08;;;;;;;13.61;69.08;101279.12;1693415;82;21119;-84
2021/05/28 04:43:29;;;;;;;6.65;3.30;;;;;;;13.65;69.01;101278.31;1699837;83;21165;-86
2021/05/28 04:46:45;;;;;;;;;;;;;;;;;;;;;
2021/05/28 04:49:21;;;;;;;6.35;3.05;;;;;;;13.70;69.04;101279.31;1661272;83;21159;-81
2021/05/28 04:51:51;;;;;;;5.67;3.37;;;;;;;13.76;68.97;101275.46;1690623;82;21561;-81
2021/05/28 04:54:30;;;;;;;;;;;;;;;;;;;;;
2021/05/28 04:57:02;;;;;;;3.30;2.98;;;;;;;13.80;68.77;101287.88;1699077;82;21147;-86
2021/05/28 04:59:59;;;;;;;;;;;;;;;;;;;;;
2021/05/28 05:02:44;;;;;;;3.15;2.85;;;;;;;13.78;68.62;101286.96;1638118;86;21201;-87
2021/05/28 05:05:20;;;;;;;3.00;2.70;;;;;;;13.74;68.64;101281.16;1631812;85;22002;-86
2021/05/28 05:07:53;;;;;;;27.55;4.25;;;;;;;13.73;68.54;101284.64;1621599;85;21133;-86
2021/05/28 05:10:35;;;;;;;10.25;3.72;;;;;;;13.70;68.69;101281.95;1640782;85;21124;-87
2021/05/28 05:13:39;;;;;;;9.43;3.70;;;;;;;13.68;68.69;101290.27;1623036;85;21119;-88
2021/05/28 05:18:50;;;;;;;4.00;3.17;;;;;;;13.69;68.74;101296.03;1536134;88;21125;-87
2021/05/28 05:21:21;;;;;;;7.20;4.05;;;;;;;13.69;68.77;101300.44;1603550;87;21215;-86
2021/05/28 05:23:54;;;;;;;4.00;3.33;;;;;;;13.70;68.75;101295.59;1596002;87;21151;-85
2021/05/28 05:29:20;;;;;;;10.80;2.70;;;;;;;13.76;68.64;101296.62;1584494;83;21063;-86
2021/05/28 05:31:57;;;;;;;8.45;3.10;;;;;;;13.83;68.63;101297.63;1691757;82;21118;-87
2021/05/28 05:34:23;;;;;;;9.58;4.08;;;;;;;13.94;68.62;101300.05;1701854;81;21107;-87
2021/05/28 05:37:06;;;;;;;6.92;2.92;;;;;;;14.06;68.53;101304.72;1671811;84;21565;-88
2021/05/28 05:39:40;;;;;;;7.42;2.80;;;;;;;14.18;68.50;101302.30;1710928;81;21119;-87
2021/05/28 05:42:14;;;;;;;6.67;2.70;;;;;;;14.34;68.42;101303.90;1759505;80;21087;-87
2021/05/28 05:44:53;;;;;;;7.72;2.90;;;;;;;14.55;68.40;101310.05;1729084;81;21068;-88
2021/05/28 05:47:31;;;;;;;4.72;2.75;;;;;;;14.68;68.14;101290.87;1722157;81;21109;-87
2021/05/28 05:50:01;;;;;;;6.35;3.05;;;;;;;14.96;68.01;101303.26;1732980;80;21056;-88
2021/05/28 05:52:40;;;;;;;5.20;3.20;;;;;;;15.12;67.61;101309.23;1755196;79;21022;-88
2021/05/28 05:55:18;;;;;;;5.83;2.87;;;;;;;15.25;67.32;101309.43;1694092;82;22747;-87
2021/05/28 05:57:50;;;;;;;7.03;4.62;;;;;;;15.33;67.05;101315.31;1665698;83;21096;-87
2021/05/28 06:00:23;;;;;;;5.85;3.12;;;;;;;15.38;66.77;101316.69;1745539;79;21032;-87
2021/05/28 06:02:52;;;;;;;3.40;2.72;;;;;;;15.43;66.63;101317.66;1727983;80;21085;-87
2021/05/28 06:05:38;;;;;;;7.53;4.37;;;;;;;15.52;66.61;101321.77;1752903;80;21112;-86
2021/05/28 06:08:07;;;;;;;5.08;3.58;;;;;;;15.68;66.44;101325.95;1745991;79;21760;-87
2021/05/28 06:10:37;;;;;;;26.33;7.30;;;;;;;15.80;66.07;101323.91;1766614;79;21081;-87
2021/05/28 06:13:07;;;;;;;12.68;5.22;;;;;;;15.96;65.92;101325.89;1751327;79;21120;-87
2021/05/28 06:15:36;;;;;;;9.68;3.83;;;;;;;16.10;65.57;101329.61;1760460;79;21085;-87
2021/05/28 06:18:03;;;;;;;6.90;3.30;;;;;;;16.25;65.42;101334.63;1739554;81;21108;-87
2021/05/28 06:20:30;;;;;;;5.55;4.40;;;;;;;16.36;65.03;101325.00;1751764;79;21845;-87
2021/05/28 06:22:59;;;;;;;7.25;3.77;;;;;;;16.47;64.94;101326.00;1750306;81;21081;-87
2021/05/28 06:25:26;;;;;;;5.53;3.02;;;;;;;16.54;64.43;101334.94;1764830;79;21097;-87
2021/05/28 06:27:53;;;;;;;5.62;3.22;;;;;;;16.61;64.16;101333.22;1751574;80;21148;-87
2021/05/28 06:30:20;;;;;;;6.62;3.27;;;;;;;16.75;64.16;101324.94;1757281;80;21052;-87
2021/05/28 06:33:07;;;;;;;5.72;2.72;;;;;;;16.89;63.57;101333.97;1760954;79;21720;-87
2021/05/28 06:35:20;;;;;;;5.42;2.58;;;;;;;17.02;63.67;101336.26;1755764;80;21100;-87
2021/05/28 06:37:48;;;;;;;3.70;3.25;;;;;;;17.35;63.55;101336.06;1750270;80;21177;-87
2021/05/28 06:40:15;;;;;;;5.90;3.02;;;;;;;17.62;62.83;101335.77;1751600;80;21170;-87
2021/05/28 06:42:42;;;;;;;5.33;2.90;;;;;;;17.79;62.85;101337.19;1764122;80;21088;-87
2021/05/28 06:45:09;;;;;;;4.67;3.20;;;;;;;18.06;62.39;101338.67;1745478;81;22175;-87
2021/05/28 06:47:36;;;;;;;6.08;2.58;;;;;;;18.08;61.38;101329.81;1758953;79;21069;-87
2021/05/28 06:50:03;;;;;;;3.33;2.67;;;;;;;18.05;61.50;101342.20;1762966;79;21076;-88
2021/05/28 06:52:30;;;;;;;7.00;3.02;;;;;;;18.11;61.34;101341.34;1712638;82;21085;-88
2021/05/28 06:54:57;;;;;;;4.40;3.17;;;;;;;18.05;60.59;101346.20;1760966;80;21032;-87
2021/05/28 06:57:25;;;;;;;5.62;3.40;;;;;;;17.98;60.70;101337.77;1758321;80;21929;-88
2021/05/28 06:59:51;;;;;;;4.80;3.35;;;;;;;18.08;61.05;101340.47;1760632;80;21131;-88
2021/05/28 07:02:18;;;;;;;7.95;3.02;;;;;;;18.19;60.61;101342.27;1762034;80;21073;-87
2021/05/28 07:04:50;;;;;;;8.00;2.98;;;;;;;18.26;60.63;101345.83;1742882;81;21120;-88
2021/05/28 07:07:23;;;;;;;4.87;3.25;;;;;;;18.37;60.41;101347.20;1672626;84;21118;-87
2021/05/28 07:09:51;;;;;;;13.08;3.35;;;;;;;18.37;59.82;101357.86;1697377;83;21761;-88
2021/05/28 07:12:18;;;;;;;8.33;3.05;;;;;;;18.29;59.48;101353.84;1701469;83;21163;-88
2021/05/28 07:14:44;;;;;;;5.35;3.12;;;;;;;18.24;59.57;101350.27;1698792;83;21658;-88
2021/05/28 07:17:11;;;;;;;7.28;3.70;;;;;;;18.24;59.62;101354.27;1686204;83;21058;-88
2021/05/28 07:19:38;;;;;;;5.50;3.33;;;;;;;18.35;59.58;101353.85;1672666;83;21103;-88
2021/05/28 07:22:05;;;;;;;9.45;3.30;;;;;;;18.45;59.39;101353.45;1702974;84;21813;-88
2021/05/28 07:24:32;;;;;;;7.50;3.85;;;;;;;18.45;59.36;101353.00;1678533;83;21155;-88
2021/05/28 07:26:59;;;;;;;6.92;3.90;;;;;;;18.54;59.03;101352.56;1706382;83;21256;-88
2021/05/28 07:29:26;;;;;;;6.37;4.15;;;;;;;18.49;58.99;101354.32;1668582;83;21185;-88
2021/05/28 07:31:53;;;;;;;10.40;6.28;;;;;;;18.34;58.61;101361.84;1658796;84;21222;-88
2021/05/28 07:34:21;;;;;;;5.22;3.58;;;;;;;18.34;58.67;101363.17;1689115;83;22482;-88
2021/05/28 07:36:48;;;;;;;7.08;3.60;;;;;;;18.44;58.86;101358.33;1645976;84;21252;-87
2021/05/28 07:39:15;;;;;;;6.33;3.35;;;;;;;18.61;58.67;101354.36;1663458;84;21903;-88
2021/05/28 07:41:50;;;;;;;4.75;3.80;;;;;;;18.74;58.69;101360.15;1694980;83;21126;-88
2021/05/28 07:44:16;;;;;;;7.87;3.65;;;;;;;18.89;58.35;101354.42;1697498;81;21055;-88
2021/05/28 07:46:45;;;;;;;4.22;3.45;;;;;;;19.04;58.20;101361.09;1758958;80;21554;-88
2021/05/28 07:49:12;;;;;;;8.03;3.60;;;;;;;19.13;57.83;101362.42;1756815;80;21052;-88
2021/05/28 07:51:45;;;;;;;5.67;3.85;;;;;;;19.18;57.70;101359.73;1755229;81;21643;-88
2021/05/28 07:54:22;;;;;;;7.72;3.92;;;;;;;19.28;57.44;101356.19;1740508;81;21064;-88
2021/05/28 07:56:57;;;;;;;4.37;3.75;;;;;;;19.40;57.36;101360.61;1722578;80;21115;-88
2021/05/28 07:59:42;;;;;;;3.77;3.40;;;;;;;19.57;57.25;101363.24;1653371;85;21147;-88
2021/05/28 08:02:46;;;;;;;5.03;3.80;;;;;;;19.74;56.88;101361.44;1615644;86;21136;-88
2021/05/28 08:05:36;;;;;;;5.20;3.30;;;;;;;19.78;56.27;101364.56;1555161;90;21947;-88
2021/05/28 08:08:26;;;;;;;4.22;2.95;;;;;;;19.77;56.12;101362.77;1477784;95;21197;-88
2021/05/28 08:14:35;;;;;;;5.70;3.72;;;;;;;19.93;55.73;101364.96;1473011;95;21211;-88
2021/05/28 08:17:20;;;;;;;4.12;2.87;;;;;;;19.82;55.58;101358.77;1476018;96;21297;-89
2021/05/28 08:20:03;;;;;;;6.72;3.45;;;;;;;19.60;55.24;101365.91;1480423;94;21255;-88
2021/05/28 08:22:47;;;;;;;4.53;3.22;;;;;;;19.22;55.18;101362.87;1430790;97;21204;-87
2021/05/28 08:25:22;;;;;;;7.30;4.78;;;;;;;18.99;55.30;101366.86;1441855;97;21154;-87
2021/05/28 08:27:59;;;;;;;5.00;3.67;;;;;;;18.77;55.09;101364.16;1425480;98;21738;-88
2021/05/28 08:30:29;;;;;;;5.03;4.00;;;;;;;18.51;55.42;101363.24;1440495;98;21208;-88
2021/05/28 08:32:56;;;;;;;6.65;3.95;;;;;;;18.24;55.41;101367.59;1428481;97;21124;-88
2021/05/28 08:35:23;;;;;;;8.00;4.08;;;;;;;17.81;55.51;101374.95;1414695;99;21266;-88
2021/05/28 08:37:50;;;;;;;7.15;5.45;;;;;;;17.22;55.75;101371.01;1442536;97;21314;-88
2021/05/28 08:40:18;;;;;;;8.53;3.98;;;;;;;16.73;56.54;101366.57;1473506;95;22510;-88
2021/05/28 08:42:45;;;;;;;8.03;5.97;;;;;;;16.49;57.40;101373.41;1509803;93;21164;-89
2021/05/28 08:45:14;;;;;;;6.87;5.42;;;;;;;16.29;57.90;101383.84;1522215;92;21199;-88
2021/05/28 08:47:41;;;;;;;8.75;5.83;;;;;;;15.99;58.27;101388.75;1529833;92;21111;-88
2021/05/28 08:50:09;;;;;;;6.37;4.05;;;;;;;15.73;58.89;101383.97;1540763;92;21130;-88
2021/05/28 08:52:39;;;;;;;10.85;4.05;;;;;;;15.14;64.70;101389.69;1534790;92;21938;-88
2021/05/28 08:55:08;;;;;;;9.88;5.87;;;;;;;14.15;67.96;101400.22;1563917;89;21266;-88
2021/05/28 08:57:34;;;;;;;10.63;5.78;;;;;;;13.27;76.90;101396.41;1564651;88;21299;-88
2021/05/28 09:00:01;;;;;;;9.20;5.85;;;;;;;12.55;79.36;101402.05;1649390;84;21033;-88
2021/05/28 09:02:34;;;;;;;14.18;5.40;;;;;;;12.02;80.83;101397.94;1691154;83;21094;-87
2021/05/28 09:05:20;;;;;;;7.92;3.87;;;;;;;11.77;80.49;101409.47;1701214;83;22603;-86
2021/05/28 09:08:00;;;;;;;6.90;4.92;;;;;;;11.15;82.54;101415.84;1707236;83;21073;-85
2021/05/28 09:10:43;;;;;;;9.63;5.65;;;;;;;10.77;82.85;101412.78;1714072;81;21106;-86
2021/05/28 09:13:22;;;;;;;10.13;6.00;;;;;;;10.77;82.90;101414.53;1630580;83;21272;-86
2021/05/28 09:15:50;;;;;;;16.73;8.63;;;;;;;10.79;83.66;101410.20;1713115;82;21605;-86
2021/05/28 09:18:17;;;;;;;14.90;8.48;;;;;;;10.91;84.63;101404.05;1760700;80;22280;-86
2021/05/28 09:20:52;;;;;;;13.05;7.72;;;;;;;11.00;84.51;101407.00;1770646;80;21081;-85
2021/05/28 09:23:19;;;;;;;14.00;8.23;;;;;;;11.07;85.59;101408.09;1762133;79;21052;-86
2021/05/28 09:26:05;;;;;;;11.80;7.22;;;;;;;11.25;85.94;101407.81;1763537;80;21098;-87
2021/05/28 09:28:48;;;;;;;7.30;5.72;;;;;;;11.43;86.17;101405.78;1760639;80;21158;-87
2021/05/28 09:31:23;;;;;;;8.05;5.22;;;;;;;11.57;85.78;101408.84;1760435;80;21737;-88
2021/05/28 09:33:51;;;;;;;6.08;5.30;;;;;;;11.66;85.59;101413.09;1749156;81;21542;-87
2021/05/28 09:36:26;;;;;;;6.17;5.22;;;;;;;11.73;85.84;101411.95;1747207;80;21089;-87
2021/05/28 09:39:08;;;;;;;6.83;5.08;;;;;;;11.94;86.23;101414.41;1754219;79;21094;-87
2021/05/28 09:41:49;;;;;;;5.92;5.42;;;;;;;12.08;86.47;101414.37;1754249;80;21055;-89
2021/05/28 09:44:21;;;;;;;6.50;5.78;;;;;;;12.42;87.24;101412.70;1744250;81;21745;-89
2021/05/28 09:47:14;;;;;;;7.62;6.03;;;;;;;12.68;86.75;101412.53;1748365;81;21084;-89
2021/05/28 09:49:43;;;;;;;9.28;5.30;;;;;;;13.07;87.18;101410.47;1756665;80;21065;-89
2021/05/28 09:52:17;;;;;;;5.40;4.90;;;;;;;13.48;87.50;101410.63;1760374;80;21157;-89
2021/05/28 09:54:59;;;;;;;5.08;4.53;;;;;;;13.77;86.26;101406.87;1749717;80;21111;-89
2021/05/28 09:57:47;;;;;;;5.45;4.50;;;;;;;13.67;84.54;101415.92;1751457;80;21780;-89
2021/05/28 10:00:34;;;;;;;5.17;4.30;;;;;;;13.92;85.12;101408.97;1747529;80;21013;-89
2021/05/28 10:03:22;;;;;;;4.67;3.92;;;;;;;14.16;84.76;101403.75;1748990;81;21077;-90
2021/05/28 10:05:59;;;;;;;4.22;3.72;;;;;;;14.45;83.65;101409.64;1750666;79;21176;-89
2021/05/28 10:08:27;;;;;;;17.57;14.60;;;;;;;14.51;82.33;101408.43;1766221;80;21546;-90
2021/05/28 10:10:56;;;;;;;5.75;4.80;;;;;;;14.41;82.34;101413.07;1753393;81;21790;-90
2021/05/28 10:13:25;;;;;;;4.25;3.85;;;;;;;14.71;83.22;101417.21;1754902;81;21808;-91
2021/05/28 10:15:54;;;;;;;9.48;7.85;;;;;;;14.74;81.67;101420.81;1751476;81;21804;-89
2021/05/28 10:18:21;;;;;;;5.42;4.92;;;;;;;14.93;82.98;101414.53;1742518;81;21069;-91
2021/05/28 10:20:50;;;;;;;5.05;4.25;;;;;;;15.17;82.38;101412.73;1760532;80;21598;-90
2021/05/28 10:23:23;;;;;;;5.40;4.55;;;;;;;15.26;81.55;101415.55;1766484;80;21735;-91
2021/05/28 10:26:05;;;;;;;4.50;3.98;;;;;;;15.11;80.14;101416.18;1758043;80;21064;-92
2021/05/28 10:28:36;;;;;;;5.12;4.62;;;;;;;14.86;80.08;101416.60;1711531;81;21336;-90
2021/05/28 10:31:03;;;;;;;5.25;4.75;;;;;;;14.78;80.37;101419.12;1762638;80;21205;-89
2021/05/28 10:33:32;;;;;;;5.53;4.62;;;;;;;14.83;80.38;101427.14;1749788;81;21093;-91
2021/05/28 10:36:05;;;;;;;7.45;6.72;;;;;;;14.70;79.71;101434.88;1730491;79;21844;-90
2021/05/28 10:38:46;;;;;;;7.30;5.75;;;;;;;14.57;79.79;101428.89;1754683;80;21050;-89
2021/05/28 10:41:18;;;;;;;9.33;5.50;;;;;;;14.66;80.22;101426.41;1766718;79;21076;-90
2021/05/28 10:44:00;;;;;;;7.20;6.50;;;;;;;14.82;79.91;101424.05;1765444;80;21720;-90
2021/05/28 10:46:27;;;;;;;7.22;5.28;;;;;;;14.92;78.43;101418.95;1768845;78;21121;-90
2021/05/28 10:49:02;;;;;;;7.08;5.15;;;;;;;15.06;78.02;101414.31;1762511;79;21732;-91
2021/05/28 10:51:34;;;;;;;5.15;4.60;;;;;;;15.21;77.95;101411.91;1768108;79;21100;-91
2021/05/28 10:54:09;;;;;;;4.25;3.85;;;;;;;15.28;76.89;101413.80;1755736;80;21499;-91
2021/05/28 10:56:42;;;;;;;6.10;3.55;;;;;;;15.24;76.61;101413.71;1762546;81;21591;-91
2021/05/28 10:59:20;;;;;;;6.53;4.15;;;;;;;15.25;75.88;101415.52;1712611;82;21109;-91
2021/05/28 11:01:56;;;;;;;4.65;3.60;;;;;;;15.26;75.56;101414.22;1748482;81;21817;-91
2021/05/28 11:04:31;;;;;;;4.30;3.70;;;;;;;15.30;76.13;101413.39;1751644;81;21187;-92
2021/05/28 11:07:04;;;;;;;3.80;3.50;;;;;;;15.41;76.15;101413.98;1756801;80;21017;-91
2021/05/28 11:09:50;;;;;;;3.85;3.55;;;;;;;15.65;76.51;101415.68;1759754;80;21203;-90
2021/05/28 11:12:21;;;;;;;8.08;4.03;;;;;;;15.78;75.46;101415.91;1766215;80;21595;-92
2021/05/28 11:15:05;;;;;;;5.58;3.70;;;;;;;15.87;75.38;101416.04;1728599;81;23940;-91
2021/05/28 11:17:32;;;;;;;;;;;;;;;15.87;75.14;101415.59;1748882;79;21120;-89
2021/05/28 11:20:05;;;;;;;6.55;3.67;;;;;;;15.76;74.36;101417.20;1753854;81;20211;-92
2021/05/28 11:22:39;;;;;;;3.58;3.27;;;;;;;15.52;73.69;101425.66;1758346;80;21071;-89
2021/05/28 11:25:18;;;;;;;;;;;;;;;14.97;73.25;101433.16;1765493;81;21049;-87
2021/05/28 11:28:09;;;;;;;6.17;2.83;;;;;;;14.52;73.45;101439.34;1739921;80;21730;-89
2021/05/28 11:30:51;;;;;;;4.53;2.75;;;;;;;14.04;73.03;101449.80;1759149;80;21073;-89
2021/05/28 11:33:39;;;;;;;6.08;2.35;;;;;;;13.46;73.64;101473.14;1761119;80;21154;-88
2021/05/28 11:36:38;;;;;;;5.00;2.35;;;;;;;12.68;75.06;101466.24;1753889;80;21144;-88
2021/05/28 11:39:07;;;;;;;4.05;2.30;;;;;;;12.08;76.35;101465.83;1770298;80;21042;-88
2021/05/28 11:42:03;;;;;;;4.20;2.12;;;;;;;11.80;77.68;101468.89;1764143;80;27818;-88
2021/05/28 11:44:32;;;;;;;5.42;2.83;;;;;;;11.56;77.95;101461.52;1720447;80;21044;-88
2021/05/28 11:46:59;;;;;;;4.12;3.20;;;;;;;11.49;78.92;101468.35;1744121;80;21183;-88
2021/05/28 11:49:27;;;;;;;5.05;3.52;;;;;;;11.54;79.69;101477.28;1726940;81;21627;-88
2021/05/28 11:52:05;;;;;;;7.05;3.10;;;;;;;11.58;80.25;101477.88;1764236;80;21522;-88
2021/05/28 11:54:35;;;;;;;8.55;3.52;;;;;;;11.66;80.14;101489.56;1749101;81;21824;-89
2021/05/28 11:57:07;;;;;;;9.28;6.50;;;;;;;11.72;80.62;101496.78;1741787;80;21523;-89
2021/05/28 11:59:53;;;;;;;4.12;3.17;;;;;;;11.74;80.27;101490.23;1750481;81;21172;-88
2021/05/28 12:02:41;;;;;;;18.57;14.75;;;;;;;11.75;80.10;101492.93;1754455;80;21638;-89
2021/05/28 12:05:37;;;;;;;9.23;4.40;;;;;;;11.65;80.35;101494.78;1750680;80;21076;-89
2021/05/28 12:08:22;;;;;;;5.25;3.98;;;;;;;11.63;80.64;101495.16;1758020;80;21840;-89